Kaolack, Senegal
Current Conditions -  °F | °C
As of 12:00 AM on Monday 24 Nov 2014 (Local Time) from GOOK Reporting Station
Clear Clear  
Wind Chill: 77°   Ceiling: Unl
Heat Index: 79°   Visibility: 5mi
Dew Point: 66°   Wind: 6mph
Humidity: 69%   Direction: 360°N
Pressure: 29.97"   Gusts: NA
Location:  14.15°N, 16.1°W
Report Text: GOOK 240000Z 36005KT 8000 NSC 25/19 Q1015
Loading
Personal Weather Stations






























Interactive Weather Map New forecast layout! Learn more

10-Day Weather Forecast

Advertisements
Track Severe Weather on mobile